createdAt,value
2018-03-16T00:02:12.007Z,22.40
2018-03-16T00:04:39.544Z,23.63
2018-03-16T00:07:07.096Z,21.00
2018-03-16T00:09:34.623Z,22.27
2018-03-16T00:12:02.128Z,20.70
2018-03-16T00:14:29.660Z,24.73
2018-03-16T00:16:57.169Z,23.43
2018-03-16T00:19:24.700Z,23.30
2018-03-16T00:21:52.204Z,20.63
2018-03-16T00:24:19.731Z,21.43
2018-03-16T00:26:47.260Z,19.77
2018-03-16T00:29:14.768Z,22.27
2018-03-16T00:31:42.304Z,22.10
2018-03-16T00:34:09.807Z,23.80
2018-03-16T00:36:37.340Z,24.43
2018-03-16T00:39:04.855Z,22.10
2018-03-16T00:41:32.387Z,23.70
2018-03-16T00:43:59.895Z,22.00
2018-03-16T00:46:27.424Z,22.57
2018-03-16T00:48:54.928Z,21.13
2018-03-16T00:51:22.489Z,22.17
2018-03-16T00:53:49.983Z,23.80
2018-03-16T00:56:17.507Z,20.80
2018-03-16T00:58:45.012Z,24.80
2018-03-16T01:01:12.547Z,21.53
2018-03-16T01:03:40.056Z,18.67
2018-03-16T01:06:07.559Z,23.70
2018-03-16T01:08:35.856Z,25.17
2018-03-16T01:11:03.372Z,20.97
2018-03-16T01:13:30.900Z,22.17
2018-03-16T01:16:00.256Z,21.43
2018-03-16T01:18:27.788Z,21.67
2018-03-16T01:20:55.295Z,21.77
2018-03-16T01:23:22.819Z,21.13
2018-03-16T01:25:51.099Z,22.63
2018-03-16T01:28:19.394Z,21.60
2018-03-16T01:30:47.664Z,22.40
2018-03-16T01:33:15.963Z,22.23
2018-03-16T01:35:44.240Z,23.43
2018-03-16T01:38:11.763Z,22.97
2018-03-16T01:40:39.275Z,20.87
2018-03-16T01:43:06.816Z,22.83
2018-03-16T01:45:35.087Z,22.83
2018-03-16T01:48:02.621Z,22.67
2018-03-16T01:50:30.907Z,22.23
2018-03-16T01:53:10.837Z,22.70
2018-03-16T01:55:38.371Z,25.07
2018-03-16T01:58:05.879Z,24.03
2018-03-16T02:00:33.412Z,21.67
2018-03-16T02:03:00.915Z,24.93
2018-03-16T02:05:28.444Z,24.73
2018-03-16T02:07:55.951Z,25.07
2018-03-16T02:10:23.475Z,24.30
2018-03-16T02:12:51.412Z,25.20
2018-03-16T02:15:18.937Z,25.10
2018-03-16T02:17:46.443Z,21.47
2018-03-16T02:20:13.964Z,24.40
2018-03-16T02:22:41.472Z,27.23
2018-03-16T02:25:08.995Z,24.43
2018-03-16T02:27:37.268Z,24.43
2018-03-16T02:30:04.813Z,27.03
2018-03-16T02:32:32.323Z,24.57
2018-03-16T02:35:00.595Z,27.80
2018-03-16T02:37:28.898Z,27.80
2018-03-16T02:39:57.172Z,25.20
2018-03-16T02:42:24.702Z,27.80
2018-03-16T02:44:52.208Z,24.77
2018-03-16T02:47:19.738Z,27.70
2018-03-16T02:49:47.256Z,25.57
2018-03-16T02:52:14.788Z,25.97
2018-03-16T02:54:42.305Z,27.43
2018-03-16T02:57:09.858Z,26.10
2018-03-16T02:59:37.368Z,27.30
2018-03-16T03:02:04.900Z,29.43
2018-03-16T03:04:32.412Z,28.47
2018-03-16T03:06:59.953Z,28.93
2018-03-16T03:09:28.219Z,30.53
2018-03-16T03:11:55.747Z,28.93
2018-03-16T03:14:23.259Z,29.47
2018-03-16T03:16:51.034Z,31.03
2018-03-16T03:19:18.967Z,27.97
2018-03-16T03:21:46.475Z,28.83
2018-03-16T03:24:14.004Z,27.80
2018-03-16T03:26:41.515Z,29.23
2018-03-16T03:29:09.047Z,29.43
2018-03-16T03:31:36.552Z,28.87
2018-03-16T03:34:04.091Z,30.73
2018-03-16T03:36:31.612Z,30.80
2018-03-16T03:38:59.180Z,31.53
2018-03-16T03:41:26.687Z,32.03
2018-03-16T03:43:54.980Z,31.27
2018-03-16T03:46:22.483Z,28.60
2018-03-16T03:48:50.013Z,30.70
2018-03-16T03:51:18.995Z,31.43
2018-03-16T03:53:46.524Z,30.67
2018-03-16T03:56:14.033Z,32.23
2018-03-16T03:58:41.550Z,32.37
2018-03-16T04:01:09.845Z,30.70
2018-03-16T04:03:37.357Z,33.47
2018-03-16T04:06:04.893Z,31.87
2018-03-16T04:08:32.396Z,31.67
2018-03-16T04:10:59.927Z,32.23
2018-03-16T04:13:27.440Z,30.83
2018-03-16T04:15:54.967Z,31.50
2018-03-16T04:18:22.492Z,31.27
2018-03-16T04:20:50.024Z,32.97
2018-03-16T04:23:17.544Z,33.80
2018-03-16T04:25:45.880Z,32.43
2018-03-16T04:28:13.384Z,33.07
2018-03-16T04:30:40.906Z,32.90
2018-03-16T04:33:08.427Z,33.87
2018-03-16T04:35:35.968Z,33.93
2018-03-16T04:38:03.477Z,32.67
2018-03-16T04:40:31.748Z,33.60
2018-03-16T04:42:59.280Z,32.17
2018-03-16T04:45:26.792Z,33.77
2018-03-16T04:47:54.315Z,32.37
2018-03-16T04:50:22.345Z,34.60
2018-03-16T04:52:49.876Z,32.83
2018-03-16T04:55:17.386Z,30.80
2018-03-16T04:57:44.911Z,36.37
2018-03-16T05:00:13.828Z,33.03
2018-03-16T05:02:42.132Z,33.10
2018-03-16T05:05:09.657Z,35.07
2018-03-16T05:07:37.197Z,37.60
2018-03-16T05:10:04.704Z,38.00
2018-03-16T05:12:32.702Z,34.17
2018-03-16T05:15:00.208Z,35.10
2018-03-16T05:17:27.752Z,31.53
2018-03-16T05:19:55.257Z,34.77
2018-03-16T05:22:22.756Z,35.00
2018-03-16T05:24:50.291Z,37.00
2018-03-16T05:27:17.801Z,33.63
2018-03-16T05:29:45.333Z,35.33
2018-03-16T05:32:12.840Z,35.47
2018-03-16T05:34:40.389Z,36.57
2018-03-16T05:37:08.664Z,34.00
2018-03-16T05:39:36.198Z,36.40
2018-03-16T05:42:03.717Z,37.73
2018-03-16T05:44:32.056Z,35.27
2018-03-16T05:46:59.613Z,35.13
2018-03-16T05:49:27.139Z,38.13
2018-03-16T05:51:54.642Z,37.57
2018-03-16T05:54:22.208Z,37.27
2018-03-16T05:56:49.716Z,35.90
2018-03-16T05:59:17.251Z,36.43
2018-03-16T06:01:44.771Z,35.60
2018-03-16T06:04:12.279Z,38.03
2018-03-16T06:06:40.580Z,37.40
2018-03-16T06:09:08.086Z,34.33
2018-03-16T06:11:35.624Z,35.97
2018-03-16T06:14:03.140Z,35.43
2018-03-16T06:16:30.669Z,34.73
2018-03-16T06:18:58.171Z,36.50
2018-03-16T06:21:25.700Z,35.50
2018-03-16T06:23:53.208Z,38.53
2018-03-16T06:26:20.740Z,39.97
2018-03-16T06:28:48.253Z,40.67
2018-03-16T06:31:15.785Z,36.77
2018-03-16T06:33:43.297Z,37.63
2018-03-16T06:36:10.824Z,34.27
2018-03-16T06:38:38.335Z,37.33
2018-03-16T06:41:05.924Z,33.70
2018-03-16T06:43:33.433Z,33.87
2018-03-16T06:46:00.960Z,35.87
2018-03-16T06:48:28.490Z,35.47
2018-03-16T06:50:56.005Z,33.97
2018-03-16T06:53:23.540Z,39.23
2018-03-16T06:55:51.057Z,38.07
2018-03-16T06:58:18.592Z,37.80
2018-03-16T07:00:46.104Z,41.23
2018-03-16T07:03:14.448Z,38.03
2018-03-16T07:05:41.936Z,40.57
2018-03-16T07:08:09.468Z,38.23
2018-03-16T07:10:36.977Z,38.23
2018-03-16T07:13:04.513Z,37.57
2018-03-16T07:15:35.880Z,38.87
2018-03-16T07:18:03.452Z,38.77
2018-03-16T07:20:30.937Z,42.43
2018-03-16T07:22:58.466Z,38.90
2018-03-16T07:25:25.996Z,38.97
2018-03-16T07:27:54.011Z,39.13
2018-03-16T07:30:22.364Z,39.13
2018-03-16T07:32:49.901Z,35.60
2018-03-16T07:35:17.439Z,35.80
2018-03-16T07:37:45.723Z,36.23
2018-03-16T07:40:14.028Z,35.87
2018-03-16T07:42:41.542Z,34.23
2018-03-16T07:45:09.075Z,32.23
2018-03-16T07:47:36.597Z,34.37
2018-03-16T07:50:04.152Z,37.00
2018-03-16T07:52:31.660Z,33.80
2018-03-16T07:54:59.966Z,33.27
2018-03-16T07:57:27.479Z,33.57
2018-03-16T07:59:55.012Z,31.13
2018-03-16T08:02:22.519Z,31.03
2018-03-16T08:04:50.818Z,35.83
2018-03-16T08:07:18.338Z,35.50
2018-03-16T08:09:45.857Z,33.37
2018-03-16T08:12:14.061Z,32.70
2018-03-16T08:14:41.559Z,32.77
2018-03-16T08:17:09.090Z,31.77
2018-03-16T08:19:36.595Z,33.17
2018-03-16T08:22:05.889Z,29.47
2018-03-16T08:24:34.215Z,28.17
2018-03-16T08:27:01.748Z,30.60
2018-03-16T08:29:30.029Z,32.37
2018-03-16T08:31:58.333Z,26.13
2018-03-16T08:34:26.615Z,30.93
2018-03-16T08:36:55.379Z,29.93
2018-03-16T08:39:22.892Z,28.77
2018-03-16T08:41:51.188Z,29.67
2018-03-16T08:44:19.532Z,28.37
2018-03-16T08:46:47.169Z,26.43
2018-03-16T08:49:15.261Z,29.27
2018-03-16T08:51:42.791Z,27.87
2018-03-16T08:54:11.096Z,27.77
2018-03-16T08:56:38.608Z,28.93
2018-03-16T08:59:06.907Z,29.53
2018-03-16T09:01:35.188Z,28.37
2018-03-16T09:04:02.725Z,29.77
2018-03-16T09:06:30.240Z,27.83
2018-03-16T09:08:57.772Z,25.53
2018-03-16T09:11:25.302Z,26.57
2018-03-16T09:13:53.608Z,29.80
2018-03-16T09:16:21.885Z,27.33
2018-03-16T09:18:50.656Z,26.10
2018-03-16T09:21:18.168Z,29.70
2018-03-16T09:23:46.466Z,28.83
2018-03-16T09:26:14.039Z,30.13
2018-03-16T09:28:41.571Z,27.90
2018-03-16T09:31:09.085Z,29.97
2018-03-16T09:33:36.628Z,28.20
2018-03-16T09:36:04.904Z,26.77
2018-03-16T09:38:32.412Z,28.47
2018-03-16T09:40:59.944Z,27.20
2018-03-16T09:43:27.492Z,32.23
2018-03-16T09:45:55.028Z,30.13
2018-03-16T09:48:22.536Z,26.67
2018-03-16T09:50:50.079Z,27.90
2018-03-16T09:53:29.279Z,25.57
2018-03-16T09:55:57.576Z,24.93
2018-03-16T09:58:25.897Z,26.93
2018-03-16T10:00:53.411Z,23.20
2018-03-16T10:03:20.923Z,26.30
2018-03-16T10:05:49.284Z,26.80
2018-03-16T10:08:17.619Z,26.60
2018-03-16T10:10:45.248Z,25.30
2018-03-16T10:13:13.838Z,26.50
2018-03-16T10:15:41.416Z,26.20
2018-03-16T10:18:10.536Z,28.87
2018-03-16T10:20:38.724Z,27.37
2018-03-16T10:23:06.375Z,28.03
2018-03-16T10:25:33.985Z,25.20
2018-03-16T10:28:01.515Z,26.93
2018-03-16T10:30:29.032Z,25.83
2018-03-16T10:32:56.580Z,26.50
2018-03-16T10:35:24.103Z,28.77
2018-03-16T10:37:51.640Z,29.40
2018-03-16T10:40:19.211Z,26.17
2018-03-16T10:42:47.340Z,30.70
2018-03-16T10:45:14.896Z,26.90
2018-03-16T10:47:42.654Z,27.50
2018-03-16T10:50:10.230Z,28.07
2018-03-16T10:52:37.760Z,25.27
2018-03-16T10:55:06.056Z,27.00
2018-03-16T10:57:34.375Z,27.20
2018-03-16T11:00:01.954Z,28.00
2018-03-16T11:02:35.186Z,27.97
2018-03-16T11:05:08.413Z,27.13
2018-03-16T11:07:43.438Z,25.13
2018-03-16T11:10:11.832Z,27.00
2018-03-16T11:12:42.491Z,29.83
2018-03-16T11:15:10.892Z,30.27
2018-03-16T11:17:38.412Z,31.10
2018-03-16T11:20:06.091Z,25.83
2018-03-16T11:22:33.680Z,29.03
2018-03-16T11:25:01.215Z,27.53
2018-03-16T11:27:28.733Z,28.37
2018-03-16T11:29:56.297Z,28.47
2018-03-16T11:32:23.815Z,29.50
2018-03-16T11:34:51.351Z,28.93
2018-03-16T11:37:19.628Z,25.90
2018-03-16T11:39:47.267Z,28.80
2018-03-16T11:42:14.894Z,33.77
2018-03-16T11:44:42.519Z,31.70
2018-03-16T11:47:10.069Z,29.80
2018-03-16T11:49:37.586Z,28.97
2018-03-16T11:52:05.116Z,27.63
2018-03-16T11:54:33.339Z,30.77
2018-03-16T11:57:00.929Z,30.33
2018-03-16T11:59:29.216Z,29.07
2018-03-16T12:01:57.515Z,28.83
2018-03-16T12:04:25.788Z,31.40
2018-03-16T12:06:53.324Z,27.80
2018-03-16T12:09:20.918Z,29.60
2018-03-16T12:11:50.952Z,26.37
2018-03-16T12:14:18.492Z,28.97
2018-03-16T12:16:46.116Z,28.90
2018-03-16T12:19:14.431Z,31.40
2018-03-16T12:21:41.993Z,31.47
2018-03-16T12:24:09.508Z,33.47
2018-03-16T12:26:37.740Z,34.13
2018-03-16T12:29:05.308Z,32.00
2018-03-16T12:31:32.861Z,30.27
2018-03-16T12:34:01.171Z,31.70
2018-03-16T12:36:28.693Z,31.57
2018-03-16T12:38:56.229Z,33.77
2018-03-16T12:41:23.748Z,29.63
2018-03-16T12:43:51.292Z,29.83
2018-03-16T12:46:19.260Z,33.20
2018-03-16T12:48:46.829Z,33.43
2018-03-16T12:51:14.426Z,38.50
2018-03-16T12:53:42.900Z,38.80
2018-03-16T12:56:10.416Z,40.50
2018-03-16T12:58:37.957Z,37.87
2018-03-16T13:01:05.492Z,39.10
2018-03-16T13:03:33.029Z,39.13
2018-03-16T13:06:00.576Z,38.17
2018-03-16T13:08:28.092Z,35.00
2018-03-16T13:10:56.395Z,31.83
2018-03-16T13:13:23.913Z,32.10
2018-03-16T13:15:51.472Z,32.67
2018-03-16T13:18:19.112Z,30.67
2018-03-16T13:20:46.697Z,31.73
2018-03-16T13:23:14.357Z,30.07
2018-03-16T13:25:41.918Z,29.90
2018-03-16T13:28:09.458Z,27.63
2018-03-16T13:30:36.987Z,31.27
2018-03-16T13:33:04.598Z,29.67
2018-03-16T13:35:32.203Z,31.53
2018-03-16T13:37:59.729Z,30.00
2018-03-16T13:40:27.558Z,27.77
2018-03-16T13:42:55.283Z,26.93
2018-03-16T13:45:22.797Z,26.60
2018-03-16T13:47:50.420Z,27.23
2018-03-16T13:50:17.986Z,24.97
2018-03-16T13:52:45.825Z,26.40
2018-03-16T13:55:13.467Z,25.67
2018-03-16T13:57:41.069Z,25.63
2018-03-16T14:00:08.596Z,29.70
2018-03-16T14:02:36.122Z,26.63
2018-03-16T14:05:03.801Z,26.37
2018-03-16T14:07:31.330Z,25.60
2018-03-16T14:09:59.636Z,26.73
2018-03-16T14:12:27.167Z,24.57
2018-03-16T14:14:54.689Z,25.50
2018-03-16T14:17:22.232Z,27.70
2018-03-16T14:19:51.307Z,25.43
2018-03-16T14:22:19.112Z,27.37
2018-03-16T14:24:46.764Z,27.90
2018-03-16T14:27:14.478Z,29.47
2018-03-16T14:29:42.332Z,27.57
2018-03-16T14:32:10.682Z,28.70
2018-03-16T14:34:38.207Z,28.97
2018-03-16T14:37:05.762Z,29.73
2018-03-16T14:39:34.926Z,31.80
2018-03-16T14:42:02.612Z,39.60
2018-03-16T14:44:30.152Z,40.00
2018-03-16T14:46:57.674Z,42.27
2018-03-16T14:49:25.217Z,42.33
2018-03-16T14:51:52.745Z,51.30
2018-03-16T14:54:21.243Z,47.63
2018-03-16T14:56:48.929Z,49.77
2018-03-16T14:59:16.629Z,54.77
2018-03-16T15:01:44.457Z,45.87
2018-03-16T15:04:12.726Z,41.20
2018-03-16T15:06:40.318Z,36.23
2018-03-16T15:09:08.597Z,37.00
2018-03-16T15:11:36.200Z,32.73
2018-03-16T15:14:03.857Z,33.83
2018-03-16T15:16:31.432Z,30.87
2018-03-16T15:19:00.046Z,30.93
2018-03-16T15:21:27.593Z,29.50
2018-03-16T15:23:55.872Z,31.87
2018-03-16T15:26:24.174Z,30.40
2018-03-16T15:28:52.461Z,28.30
2018-03-16T15:31:20.797Z,29.60
2018-03-16T15:33:48.409Z,32.70
2018-03-16T15:36:16.737Z,32.10
2018-03-16T15:38:44.458Z,24.53
2018-03-16T15:41:12.025Z,25.93
2018-03-16T15:43:40.372Z,21.50
2018-03-16T15:46:07.884Z,23.93
2018-03-16T15:48:35.433Z,24.60
2018-03-16T15:51:03.241Z,25.17
2018-03-16T15:53:30.765Z,23.77
2018-03-16T15:55:58.292Z,25.30
2018-03-16T15:58:25.809Z,20.07
2018-03-16T16:00:53.345Z,22.87
2018-03-16T16:03:21.672Z,22.00
2018-03-16T16:05:49.184Z,22.10
2018-03-16T16:08:16.720Z,17.73
2018-03-16T16:10:44.229Z,16.10
2018-03-16T16:13:11.766Z,15.63
2018-03-16T16:15:39.277Z,16.10
2018-03-16T16:18:06.805Z,14.37
2018-03-16T16:20:34.333Z,14.23
2018-03-16T16:23:02.613Z,13.83
2018-03-16T16:25:30.663Z,11.30
2018-03-16T16:27:58.178Z,11.13
2018-03-16T16:30:26.463Z,10.83
2018-03-16T16:32:54.770Z,12.27
2018-03-16T16:35:22.359Z,11.80
2018-03-16T16:37:50.645Z,11.63
2018-03-16T16:40:18.713Z,11.97
2018-03-16T16:42:46.278Z,9.40
2018-03-16T16:45:14.460Z,10.93
2018-03-16T16:47:41.965Z,11.13
2018-03-16T16:50:09.481Z,10.37
2018-03-16T16:52:37.756Z,10.13
2018-03-16T16:55:05.350Z,8.27
2018-03-16T16:57:32.802Z,10.07
2018-03-16T17:00:01.117Z,10.00
2018-03-16T17:02:28.642Z,10.60
2018-03-16T17:04:56.162Z,10.33
2018-03-16T17:07:23.688Z,8.50
2018-03-16T17:09:51.367Z,10.53
2018-03-16T17:12:18.912Z,10.67
2018-03-16T17:14:46.425Z,9.87
2018-03-16T17:17:14.700Z,10.27
2018-03-16T17:19:42.229Z,11.73
2018-03-16T17:22:09.739Z,12.63
2018-03-16T17:24:37.281Z,11.30
2018-03-16T17:27:04.793Z,13.60
2018-03-16T17:29:33.075Z,14.20
2018-03-16T17:32:00.614Z,15.07
2018-03-16T17:34:28.129Z,15.17
2018-03-16T17:36:56.465Z,15.13
2018-03-16T17:39:24.316Z,18.57
2018-03-16T17:41:51.833Z,18.60
2018-03-16T17:44:19.369Z,18.17
2018-03-16T17:46:46.911Z,17.70
2018-03-16T17:49:15.228Z,14.93
2018-03-16T17:51:42.740Z,15.90
2018-03-16T17:54:10.258Z,20.57
2018-03-16T17:56:37.792Z,19.53
2018-03-16T17:59:05.315Z,19.20
2018-03-16T18:01:33.239Z,19.10
2018-03-16T18:04:00.758Z,21.30
2018-03-16T18:06:28.269Z,20.70
2018-03-16T18:08:55.820Z,20.97
2018-03-16T18:11:24.152Z,21.20
2018-03-16T18:13:52.472Z,20.57
2018-03-16T18:16:20.013Z,21.37
2018-03-16T18:18:48.296Z,20.83
2018-03-16T18:21:15.870Z,23.07
2018-03-16T18:23:44.145Z,19.47
2018-03-16T18:26:11.657Z,22.37
2018-03-16T18:28:39.607Z,23.10
2018-03-16T18:31:07.117Z,21.80
2018-03-16T18:33:34.983Z,23.33
2018-03-16T18:36:02.508Z,24.93
2018-03-16T18:38:30.021Z,25.57
2018-03-16T18:40:57.572Z,24.60
2018-03-16T18:43:25.861Z,25.13
2018-03-16T18:45:54.175Z,21.77
2018-03-16T18:48:21.708Z,20.80
2018-03-16T18:50:50.008Z,24.00
2018-03-16T18:53:18.312Z,23.80
2018-03-16T18:55:46.593Z,20.23
2018-03-16T18:58:15.187Z,23.60
2018-03-16T19:00:43.470Z,23.83
2018-03-16T19:03:12.160Z,25.07
2018-03-16T19:05:39.697Z,24.83
2018-03-16T19:08:07.204Z,25.77
2018-03-16T19:10:35.525Z,25.60
2018-03-16T19:13:03.042Z,23.13
2018-03-16T19:15:30.559Z,23.73
2018-03-16T19:17:58.097Z,25.07
2018-03-16T19:20:25.619Z,24.83
2018-03-16T19:22:53.169Z,23.10
2018-03-16T19:25:20.704Z,23.17
2018-03-16T19:27:48.668Z,24.07
2018-03-16T19:30:16.265Z,25.47
2018-03-16T19:32:44.562Z,24.13
2018-03-16T19:35:13.047Z,24.10
2018-03-16T19:37:40.904Z,24.13
2018-03-16T19:40:08.522Z,24.73
2018-03-16T19:42:37.455Z,22.97
2018-03-16T19:45:08.663Z,18.80
2018-03-16T19:47:37.065Z,25.37
2018-03-16T19:50:05.348Z,24.70
2018-03-16T19:52:32.900Z,20.93
2018-03-16T19:55:01.421Z,26.10
2018-03-16T19:57:28.964Z,24.27
2018-03-16T19:59:56.528Z,26.77
2018-03-16T20:02:24.052Z,24.23
2018-03-16T20:04:51.592Z,22.57
2018-03-16T20:07:19.882Z,23.40
2018-03-16T20:09:48.228Z,25.17
2018-03-16T20:12:15.752Z,24.17
2018-03-16T20:14:43.752Z,21.90
2018-03-16T20:17:11.307Z,24.57
2018-03-16T20:19:39.613Z,25.63
2018-03-16T20:22:07.178Z,24.70
2018-03-16T20:24:34.688Z,26.33
2018-03-16T20:27:02.222Z,27.37
2018-03-16T20:29:29.752Z,26.93
2018-03-16T20:31:57.281Z,26.53
2018-03-16T20:34:24.826Z,26.80
2018-03-16T20:36:52.363Z,24.77
2018-03-16T20:39:19.876Z,24.63
2018-03-16T20:41:47.414Z,25.07
2018-03-16T20:44:14.924Z,24.77
2018-03-16T20:46:42.465Z,25.37
2018-03-16T20:49:10.953Z,25.27
2018-03-16T20:51:39.401Z,23.93
2018-03-16T20:54:07.039Z,27.60
2018-03-16T20:56:34.604Z,25.37
2018-03-16T20:59:02.882Z,27.07
2018-03-16T21:01:31.162Z,26.53
2018-03-16T21:03:59.466Z,24.47
2018-03-16T21:06:27.751Z,24.50
2018-03-16T21:08:56.060Z,26.40
2018-03-16T21:11:23.596Z,27.40
2018-03-16T21:13:51.104Z,24.17
2018-03-16T21:16:18.653Z,22.83
2018-03-16T21:18:46.929Z,25.53
2018-03-16T21:21:15.233Z,22.00
2018-03-16T21:23:43.513Z,22.30
2018-03-16T21:26:11.788Z,22.33
2018-03-16T21:28:39.320Z,23.80
2018-03-16T21:31:06.876Z,22.40
2018-03-16T21:33:35.164Z,21.83
2018-03-16T21:36:02.686Z,21.27
2018-03-16T21:38:30.202Z,19.43
2018-03-16T21:40:57.740Z,19.60
2018-03-16T21:43:26.020Z,19.90
2018-03-16T21:45:55.450Z,20.20
2018-03-16T21:48:23.120Z,21.27
2018-03-16T21:50:51.405Z,19.50
2018-03-16T21:53:19.713Z,23.50
2018-03-16T21:55:47.225Z,19.83
2018-03-16T21:58:14.780Z,20.70
2018-03-16T22:00:42.298Z,19.97
2018-03-16T22:03:09.808Z,22.17
2018-03-16T22:05:37.348Z,22.07
2018-03-16T22:08:05.644Z,21.63
2018-03-16T22:10:33.950Z,19.80
2018-03-16T22:13:01.468Z,18.40
2018-03-16T22:15:28.996Z,18.57
2018-03-16T22:17:56.539Z,18.07
2018-03-16T22:20:24.813Z,17.83
2018-03-16T22:22:52.358Z,19.30
2018-03-16T22:25:19.876Z,17.37
2018-03-16T22:27:48.150Z,19.03
2018-03-16T22:30:16.448Z,21.40
2018-03-16T22:32:44.732Z,18.70
2018-03-16T22:35:13.325Z,17.87
2018-03-16T22:37:41.609Z,16.57
2018-03-16T22:40:09.892Z,18.40
2018-03-16T22:42:37.429Z,17.63
2018-03-16T22:45:04.948Z,16.73
2018-03-16T22:47:33.257Z,17.47
2018-03-16T22:50:00.773Z,19.37
2018-03-16T22:52:28.296Z,16.27
2018-03-16T22:54:55.831Z,17.80
2018-03-16T22:57:23.340Z,17.40
2018-03-16T22:59:51.173Z,15.77
2018-03-16T23:02:18.685Z,17.10
2018-03-16T23:04:46.199Z,18.87
2018-03-16T23:07:13.737Z,18.27
2018-03-16T23:09:41.248Z,17.77
2018-03-16T23:12:09.078Z,14.97
2018-03-16T23:14:36.609Z,16.77
2018-03-16T23:17:04.125Z,15.93
2018-03-16T23:19:31.661Z,15.17
2018-03-16T23:21:59.940Z,16.33
2018-03-16T23:24:27.482Z,16.20
2018-03-16T23:26:55.009Z,13.67
2018-03-16T23:29:22.557Z,15.10
2018-03-16T23:31:50.834Z,14.83
2018-03-16T23:34:18.344Z,16.27
2018-03-16T23:36:45.877Z,15.77
2018-03-16T23:39:14.172Z,15.47
2018-03-16T23:41:42.469Z,18.67
2018-03-16T23:44:10.749Z,16.27
2018-03-16T23:46:39.057Z,15.93
2018-03-16T23:49:06.579Z,15.57
2018-03-16T23:51:34.111Z,17.77
2018-03-16T23:54:02.268Z,16.70
2018-03-16T23:56:30.548Z,16.53
2018-03-16T23:58:58.085Z,16.40
